sensor_id;sensor_type;location;lat;lon;timestamp;temperature;humidity
7427;DHT22;3755;59.316;18.092;2023-03-17T00:00:38;-0.20;99.90
7427;DHT22;3755;59.316;18.092;2023-03-17T00:03:11;-0.30;99.90
7427;DHT22;3755;59.316;18.092;2023-03-17T00:05:46;-0.30;99.90
7427;DHT22;3755;59.316;18.092;2023-03-17T00:08:19;-0.30;99.90
7427;DHT22;3755;59.316;18.092;2023-03-17T00:10:49;-0.30;99.90
7427;DHT22;3755;59.316;18.092;2023-03-17T00:13:16;-0.30;99.90
7427;DHT22;3755;59.316;18.092;2023-03-17T00:15:51;-0.40;99.90
7427;DHT22;3755;59.316;18.092;2023-03-17T00:18:21;-0.60;99.90
7427;DHT22;3755;59.316;18.092;2023-03-17T00:20:49;-0.60;99.90
7427;DHT22;3755;59.316;18.092;2023-03-17T00:23:20;-0.40;99.90
7427;DHT22;3755;59.316;18.092;2023-03-17T00:25:50;-0.50;99.90
7427;DHT22;3755;59.316;18.092;2023-03-17T00:28:20;-0.60;99.90
7427;DHT22;3755;59.316;18.092;2023-03-17T00:30:48;-0.60;99.90
7427;DHT22;3755;59.316;18.092;2023-03-17T00:33:23;-0.60;99.90
7427;DHT22;3755;59.316;18.092;2023-03-17T00:35:54;-0.60;99.90
7427;DHT22;3755;59.316;18.092;2023-03-17T00:38:22;-0.60;99.90
7427;DHT22;3755;59.316;18.092;2023-03-17T00:40:51;-0.70;99.90
7427;DHT22;3755;59.316;18.092;2023-03-17T00:43:19;-0.70;99.90
7427;DHT22;3755;59.316;18.092;2023-03-17T00:45:48;-0.70;99.90
7427;DHT22;3755;59.316;18.092;2023-03-17T00:48:17;-0.50;99.90
7427;DHT22;3755;59.316;18.092;2023-03-17T00:50:49;-0.70;99.90
7427;DHT22;3755;59.316;18.092;2023-03-17T00:53:19;-0.60;99.90
7427;DHT22;3755;59.316;18.092;2023-03-17T00:55:47;-0.60;99.90
7427;DHT22;3755;59.316;18.092;2023-03-17T00:58:18;-0.60;99.90
7427;DHT22;3755;59.316;18.092;2023-03-17T01:00:48;-0.60;99.90
7427;DHT22;3755;59.316;18.092;2023-03-17T01:03:16;-0.60;99.90
7427;DHT22;3755;59.316;18.092;2023-03-17T01:05:46;-0.60;99.90
7427;DHT22;3755;59.316;18.092;2023-03-17T01:08:14;-0.60;99.90
7427;DHT22;3755;59.316;18.092;2023-03-17T01:10:55;-0.60;99.90
7427;DHT22;3755;59.316;18.092;2023-03-17T01:13:23;-0.60;99.90
7427;DHT22;3755;59.316;18.092;2023-03-17T01:15:52;-0.60;99.90
7427;DHT22;3755;59.316;18.092;2023-03-17T01:18:36;-0.60;99.90
7427;DHT22;3755;59.316;18.092;2023-03-17T01:21:20;-0.60;99.90
7427;DHT22;3755;59.316;18.092;2023-03-17T01:23:54;-0.60;99.90
7427;DHT22;3755;59.316;18.092;2023-03-17T01:26:34;-0.60;99.90
7427;DHT22;3755;59.316;18.092;2023-03-17T01:29:03;-0.60;99.90
7427;DHT22;3755;59.316;18.092;2023-03-17T01:31:33;-0.60;99.90
7427;DHT22;3755;59.316;18.092;2023-03-17T01:34:00;-0.50;99.90
7427;DHT22;3755;59.316;18.092;2023-03-17T01:36:30;-0.50;99.90
7427;DHT22;3755;59.316;18.092;2023-03-17T01:39:00;-0.50;99.90
7427;DHT22;3755;59.316;18.092;2023-03-17T01:41:33;-0.50;99.90
7427;DHT22;3755;59.316;18.092;2023-03-17T01:44:03;-0.50;99.90
7427;DHT22;3755;59.316;18.092;2023-03-17T01:46:32;-0.70;99.90
7427;DHT22;3755;59.316;18.092;2023-03-17T01:49:05;-0.60;99.90
7427;DHT22;3755;59.316;18.092;2023-03-17T01:51:39;-0.60;99.90
7427;DHT22;3755;59.316;18.092;2023-03-17T01:54:12;-0.60;99.90
7427;DHT22;3755;59.316;18.092;2023-03-17T01:56:43;-0.60;99.90
7427;DHT22;3755;59.316;18.092;2023-03-17T01:59:18;-0.70;99.90
7427;DHT22;3755;59.316;18.092;2023-03-17T02:01:48;-0.70;99.90
7427;DHT22;3755;59.316;18.092;2023-03-17T02:04:18;-0.80;99.90
7427;DHT22;3755;59.316;18.092;2023-03-17T02:06:49;-0.80;99.90
7427;DHT22;3755;59.316;18.092;2023-03-17T02:09:17;-0.80;99.90
7427;DHT22;3755;59.316;18.092;2023-03-17T02:11:45;-0.70;99.90
7427;DHT22;3755;59.316;18.092;2023-03-17T02:14:12;-0.80;99.90
7427;DHT22;3755;59.316;18.092;2023-03-17T02:16:43;-0.80;99.90
7427;DHT22;3755;59.316;18.092;2023-03-17T02:19:10;-0.80;99.90
7427;DHT22;3755;59.316;18.092;2023-03-17T02:21:41;-0.80;99.90
7427;DHT22;3755;59.316;18.092;2023-03-17T02:24:20;-0.80;99.90
7427;DHT22;3755;59.316;18.092;2023-03-17T02:26:50;-0.80;99.90
7427;DHT22;3755;59.316;18.092;2023-03-17T02:29:20;-0.80;99.90
7427;DHT22;3755;59.316;18.092;2023-03-17T02:31:48;-0.80;99.90
7427;DHT22;3755;59.316;18.092;2023-03-17T02:34:29;-0.80;99.90
7427;DHT22;3755;59.316;18.092;2023-03-17T02:37:22;-0.80;99.90
7427;DHT22;3755;59.316;18.092;2023-03-17T02:40:08;-0.80;99.90
7427;DHT22;3755;59.316;18.092;2023-03-17T02:42:54;-0.80;99.90
7427;DHT22;3755;59.316;18.092;2023-03-17T02:45:24;-0.80;99.90
7427;DHT22;3755;59.316;18.092;2023-03-17T02:48:26;-0.70;99.90
7427;DHT22;3755;59.316;18.092;2023-03-17T02:50:59;-0.70;99.90
7427;DHT22;3755;59.316;18.092;2023-03-17T02:53:28;-0.70;99.90
7427;DHT22;3755;59.316;18.092;2023-03-17T02:55:59;-0.70;99.90
7427;DHT22;3755;59.316;18.092;2023-03-17T02:58:39;-0.70;99.90
7427;DHT22;3755;59.316;18.092;2023-03-17T03:01:13;-0.70;99.90
7427;DHT22;3755;59.316;18.092;2023-03-17T03:03:56;-0.70;99.90
7427;DHT22;3755;59.316;18.092;2023-03-17T03:06:24;-0.60;99.90
7427;DHT22;3755;59.316;18.092;2023-03-17T03:08:53;-0.60;99.90
7427;DHT22;3755;59.316;18.092;2023-03-17T03:11:21;-0.60;99.90
7427;DHT22;3755;59.316;18.092;2023-03-17T03:13:48;-0.40;99.90
7427;DHT22;3755;59.316;18.092;2023-03-17T03:16:15;-0.60;99.90
7427;DHT22;3755;59.316;18.092;2023-03-17T03:18:43;-1.80;99.90
7427;DHT22;3755;59.316;18.092;2023-03-17T03:21:10;-0.60;99.90
7427;DHT22;3755;59.316;18.092;2023-03-17T03:23:37;-0.60;99.90
7427;DHT22;3755;59.316;18.092;2023-03-17T03:26:07;-0.60;99.90
7427;DHT22;3755;59.316;18.092;2023-03-17T03:28:35;-0.50;99.90
7427;DHT22;3755;59.316;18.092;2023-03-17T03:31:03;-0.60;99.90
7427;DHT22;3755;59.316;18.092;2023-03-17T03:33:30;-0.60;99.90
7427;DHT22;3755;59.316;18.092;2023-03-17T03:35:58;-0.60;99.90
7427;DHT22;3755;59.316;18.092;2023-03-17T03:38:25;-0.60;99.90
7427;DHT22;3755;59.316;18.092;2023-03-17T03:40:53;-0.60;99.90
7427;DHT22;3755;59.316;18.092;2023-03-17T03:43:26;-0.60;99.90
7427;DHT22;3755;59.316;18.092;2023-03-17T03:45:56;-0.60;99.90
7427;DHT22;3755;59.316;18.092;2023-03-17T03:48:28;-0.50;99.90
7427;DHT22;3755;59.316;18.092;2023-03-17T03:51:17;-0.90;99.90
7427;DHT22;3755;59.316;18.092;2023-03-17T03:53:44;-0.70;99.90
7427;DHT22;3755;59.316;18.092;2023-03-17T03:56:13;-0.70;99.90
7427;DHT22;3755;59.316;18.092;2023-03-17T03:58:42;-0.70;99.90
7427;DHT22;3755;59.316;18.092;2023-03-17T04:01:09;-0.70;99.90
7427;DHT22;3755;59.316;18.092;2023-03-17T04:03:37;-0.80;99.90
7427;DHT22;3755;59.316;18.092;2023-03-17T04:06:06;-0.70;99.90
7427;DHT22;3755;59.316;18.092;2023-03-17T04:08:33;-0.80;99.90
7427;DHT22;3755;59.316;18.092;2023-03-17T04:11:01;-0.80;99.90
7427;DHT22;3755;59.316;18.092;2023-03-17T04:13:28;-0.80;99.90
7427;DHT22;3755;59.316;18.092;2023-03-17T04:15:58;-0.80;99.90
7427;DHT22;3755;59.316;18.092;2023-03-17T04:18:26;-0.80;99.90
7427;DHT22;3755;59.316;18.092;2023-03-17T04:21:10;-0.80;99.90
7427;DHT22;3755;59.316;18.092;2023-03-17T04:23:52;-0.80;99.90
7427;DHT22;3755;59.316;18.092;2023-03-17T04:26:22;-0.80;99.90
7427;DHT22;3755;59.316;18.092;2023-03-17T04:28:49;-0.80;99.90
7427;DHT22;3755;59.316;18.092;2023-03-17T04:31:27;-0.80;99.90
7427;DHT22;3755;59.316;18.092;2023-03-17T04:33:55;-0.80;99.90
7427;DHT22;3755;59.316;18.092;2023-03-17T04:36:23;-0.80;99.90
7427;DHT22;3755;59.316;18.092;2023-03-17T04:38:50;-0.80;99.90
7427;DHT22;3755;59.316;18.092;2023-03-17T04:41:18;-0.80;99.90
7427;DHT22;3755;59.316;18.092;2023-03-17T04:43:46;-0.40;99.90
7427;DHT22;3755;59.316;18.092;2023-03-17T04:46:13;-0.70;99.90
7427;DHT22;3755;59.316;18.092;2023-03-17T04:48:43;-0.70;99.90
7427;DHT22;3755;59.316;18.092;2023-03-17T04:51:10;-0.70;99.90
7427;DHT22;3755;59.316;18.092;2023-03-17T04:53:37;-0.70;99.90
7427;DHT22;3755;59.316;18.092;2023-03-17T04:56:05;-0.60;99.90
7427;DHT22;3755;59.316;18.092;2023-03-17T04:58:32;-0.60;99.90
7427;DHT22;3755;59.316;18.092;2023-03-17T05:01:00;-0.50;99.90
7427;DHT22;3755;59.316;18.092;2023-03-17T05:03:30;-0.50;99.90
7427;DHT22;3755;59.316;18.092;2023-03-17T05:06:02;-0.50;99.90
7427;DHT22;3755;59.316;18.092;2023-03-17T05:08:30;-0.50;99.90
7427;DHT22;3755;59.316;18.092;2023-03-17T05:11:00;-0.40;99.90
7427;DHT22;3755;59.316;18.092;2023-03-17T05:13:28;-0.40;99.90
7427;DHT22;3755;59.316;18.092;2023-03-17T05:15:56;-0.40;99.90
7427;DHT22;3755;59.316;18.092;2023-03-17T05:18:25;-0.30;99.90
7427;DHT22;3755;59.316;18.092;2023-03-17T05:20:53;-0.30;99.90
7427;DHT22;3755;59.316;18.092;2023-03-17T05:23:24;-0.30;99.90
7427;DHT22;3755;59.316;18.092;2023-03-17T05:25:55;-0.20;99.90
7427;DHT22;3755;59.316;18.092;2023-03-17T05:28:23;-0.20;99.90
7427;DHT22;3755;59.316;18.092;2023-03-17T05:30:51;-0.10;99.90
7427;DHT22;3755;59.316;18.092;2023-03-17T05:33:19;0.00;99.90
7427;DHT22;3755;59.316;18.092;2023-03-17T05:35:47;0.00;99.90
7427;DHT22;3755;59.316;18.092;2023-03-17T05:38:15;0.10;99.90
7427;DHT22;3755;59.316;18.092;2023-03-17T05:40:44;0.10;99.90
7427;DHT22;3755;59.316;18.092;2023-03-17T05:43:20;0.10;99.90
7427;DHT22;3755;59.316;18.092;2023-03-17T05:45:47;0.20;99.90
7427;DHT22;3755;59.316;18.092;2023-03-17T05:48:15;0.20;99.90
7427;DHT22;3755;59.316;18.092;2023-03-17T05:50:42;0.30;99.90
7427;DHT22;3755;59.316;18.092;2023-03-17T05:53:09;0.30;99.90
7427;DHT22;3755;59.316;18.092;2023-03-17T05:55:37;0.40;99.90
7427;DHT22;3755;59.316;18.092;2023-03-17T05:58:24;0.50;99.90
7427;DHT22;3755;59.316;18.092;2023-03-17T06:01:10;0.60;99.90
7427;DHT22;3755;59.316;18.092;2023-03-17T06:03:48;0.70;99.90
7427;DHT22;3755;59.316;18.092;2023-03-17T06:06:16;0.70;99.90
7427;DHT22;3755;59.316;18.092;2023-03-17T06:08:58;0.80;99.90
7427;DHT22;3755;59.316;18.092;2023-03-17T06:11:47;0.90;99.90
7427;DHT22;3755;59.316;18.092;2023-03-17T06:14:37;0.70;99.90
7427;DHT22;3755;59.316;18.092;2023-03-17T06:20:09;1.10;99.90
7427;DHT22;3755;59.316;18.092;2023-03-17T06:22:52;1.20;99.90
7427;DHT22;3755;59.316;18.092;2023-03-17T06:25:35;1.20;99.90
7427;DHT22;3755;59.316;18.092;2023-03-17T06:28:15;1.20;99.90
7427;DHT22;3755;59.316;18.092;2023-03-17T06:31:07;1.30;99.90
7427;DHT22;3755;59.316;18.092;2023-03-17T06:33:39;1.30;99.90
7427;DHT22;3755;59.316;18.092;2023-03-17T07:04:06;1.80;99.90
7427;DHT22;3755;59.316;18.092;2023-03-17T11:51:19;4.80;99.90
7427;DHT22;3755;59.316;18.092;2023-03-17T11:54:22;4.30;99.90
7427;DHT22;3755;59.316;18.092;2023-03-17T12:00:49;4.10;99.90
7427;DHT22;3755;59.316;18.092;2023-03-17T12:04:47;4.40;99.90
7427;DHT22;3755;59.316;18.092;2023-03-17T22:00:57;3.90;99.90
7427;DHT22;3755;59.316;18.092;2023-03-17T22:06:55;3.90;99.90
7427;DHT22;3755;59.316;18.092;2023-03-17T22:10:15;3.90;99.90
7427;DHT22;3755;59.316;18.092;2023-03-17T22:58:21;4.10;99.90
7427;DHT22;3755;59.316;18.092;2023-03-17T23:04:07;4.10;99.90
7427;DHT22;3755;59.316;18.092;2023-03-17T23:06:39;4.10;99.90
7427;DHT22;3755;59.316;18.092;2023-03-17T23:09:20;4.10;99.90
7427;DHT22;3755;59.316;18.092;2023-03-17T23:11:48;4.10;99.90
7427;DHT22;3755;59.316;18.092;2023-03-17T23:14:58;4.10;99.90
7427;DHT22;3755;59.316;18.092;2023-03-17T23:17:57;4.10;99.90
7427;DHT22;3755;59.316;18.092;2023-03-17T23:20:30;4.20;99.90
7427;DHT22;3755;59.316;18.092;2023-03-17T23:23:11;4.10;99.90
7427;DHT22;3755;59.316;18.092;2023-03-17T23:25:53;4.10;99.90
7427;DHT22;3755;59.316;18.092;2023-03-17T23:28:26;4.20;99.90
7427;DHT22;3755;59.316;18.092;2023-03-17T23:30:55;4.20;99.90
7427;DHT22;3755;59.316;18.092;2023-03-17T23:33:38;4.20;99.90
7427;DHT22;3755;59.316;18.092;2023-03-17T23:36:06;4.20;99.90
7427;DHT22;3755;59.316;18.092;2023-03-17T23:38:34;4.20;99.90
7427;DHT22;3755;59.316;18.092;2023-03-17T23:41:16;4.30;99.90
7427;DHT22;3755;59.316;18.092;2023-03-17T23:43:44;4.30;99.90
7427;DHT22;3755;59.316;18.092;2023-03-17T23:46:15;4.30;99.90
7427;DHT22;3755;59.316;18.092;2023-03-17T23:48:58;4.10;99.90
7427;DHT22;3755;59.316;18.092;2023-03-17T23:51:33;4.30;99.90
7427;DHT22;3755;59.316;18.092;2023-03-17T23:54:01;4.30;99.90
7427;DHT22;3755;59.316;18.092;2023-03-17T23:56:32;4.40;99.90
7427;DHT22;3755;59.316;18.092;2023-03-17T23:59:01;4.40;99.90
